Time;durP1;ratioP1;P1;durP2;ratioP2;P2;SDS_P1;SDS_P2;PMS_P1;PMS_P2;Temp;Humidity;BMP_temperature;BMP_pressure;BME280_temperature;BME280_humidity;BME280_pressure;Samples;Min_cycle;Max_cycle;Signal;HPM_P1;HPM_P2
2022/09/17 00:01:28;;;;;;;;;1.25;1.00;;;;;16.25;48.29;101512.91;4885464;29;45372;-65
2022/09/17 00:03:55;;;;;;;;;1.00;1.00;;;;;16.24;48.33;101514.72;4885522;29;45397;-65
2022/09/17 00:06:23;;;;;;;;;1.00;1.00;;;;;16.30;48.11;101527.94;4892719;29;46358;-65
2022/09/17 00:08:48;;;;;;;;;0.00;0.00;;;;;16.24;48.46;101521.94;4885308;29;45304;-65
2022/09/17 00:11:20;;;;;;;;;2.00;1.00;;;;;16.28;48.35;101535.19;4885507;29;45354;-65
2022/09/17 00:13:47;;;;;;;;;1.00;1.00;;;;;16.24;48.09;101525.50;4897005;29;45402;-65
2022/09/17 00:16:12;;;;;;;;;2.25;1.00;;;;;16.26;47.82;101534.38;4885018;29;46494;-65
2022/09/17 00:18:40;;;;;;;;;3.00;1.00;;;;;16.17;48.29;101512.34;4882756;29;45649;-65
2022/09/17 00:21:14;;;;;;;;;1.50;1.25;;;;;16.22;48.18;101527.41;4883866;29;45442;-66
2022/09/17 00:23:39;;;;;;;;;1.00;1.00;;;;;16.22;48.38;101531.88;4885140;29;45399;-65
2022/09/17 00:26:05;;;;;;;;;1.00;1.00;;;;;16.18;48.33;101524.91;4885153;29;53691;-66
2022/09/17 00:28:30;;;;;;;;;2.00;1.00;;;;;16.13;48.60;101513.44;4884841;29;45420;-65
2022/09/17 00:30:56;;;;;;;;;1.00;1.00;;;;;16.15;48.64;101525.03;4885424;29;45863;-65
2022/09/17 00:33:21;;;;;;;;;1.50;0.00;;;;;16.15;48.62;101525.03;4884640;29;45634;-66
2022/09/17 00:35:58;;;;;;;;;0.00;0.00;;;;;16.15;48.53;101535.78;4885151;29;49890;-65
2022/09/17 00:38:23;;;;;;;;;2.00;0.25;;;;;16.15;48.66;101530.41;4884139;29;45605;-65
2022/09/17 00:40:48;;;;;;;;;0.00;0.00;;;;;16.12;48.64;101526.03;4885393;29;45622;-65
2022/09/17 00:43:36;;;;;;;;;0.00;0.00;;;;;16.10;48.62;101528.81;4883799;29;46658;-66
2022/09/17 00:46:04;;;;;;;;;2.00;0.75;;;;;16.08;48.78;101541.44;4884988;29;45479;-65
2022/09/17 00:48:30;;;;;;;;;1.00;1.00;;;;;16.03;48.88;101527.28;4884534;29;45405;-65
2022/09/17 00:51:00;;;;;;;;;1.00;0.00;;;;;16.03;48.82;101527.28;4882811;29;45422;-65
2022/09/17 00:53:27;;;;;;;;;0.25;0.00;;;;;16.05;48.96;101530.78;4878238;29;45476;-65
2022/09/17 00:56:01;;;;;;;;;0.00;0.00;;;;;16.02;48.81;101536.34;4879202;29;45556;-66
2022/09/17 00:58:30;;;;;;;;;2.25;0.00;;;;;16.02;48.85;101530.94;4888081;29;45314;-66
2022/09/17 01:00:55;;;;;;;;;0.50;0.00;;;;;16.02;48.90;101538.13;4884951;29;45416;-65
2022/09/17 01:03:21;;;;;;;;;2.00;0.00;;;;;16.03;49.02;101537.19;4884927;29;45574;-66
2022/09/17 01:05:54;;;;;;;;;0.25;0.25;;;;;16.03;49.30;101534.50;4892133;29;46087;-65
2022/09/17 01:08:37;;;;;;;;;1.00;1.00;;;;;16.05;49.04;101543.38;4883906;29;45508;-65
2022/09/17 01:11:15;;;;;;;;;2.00;0.00;;;;;16.02;49.09;101530.06;4884466;29;45281;-65
2022/09/17 01:14:13;;;;;;;;;1.25;1.00;;;;;16.03;49.14;101534.50;4881330;29;45838;-65
2022/09/17 01:16:57;;;;;;;;;1.25;0.50;;;;;16.02;49.06;101538.13;4882836;29;46444;-66
2022/09/17 01:19:57;;;;;;;;;0.00;0.00;;;;;15.97;48.94;101535.66;4873566;29;45487;-65
2022/09/17 01:22:25;;;;;;;;;2.00;1.00;;;;;15.97;49.10;101537.44;4875205;29;45730;-66
2022/09/17 01:25:11;;;;;;;;;1.00;0.00;;;;;15.92;49.13;101540.31;4884394;29;45405;-65
2022/09/17 01:27:58;;;;;;;;;1.50;0.75;;;;;15.96;49.27;101538.41;4875566;29;45516;-65
2022/09/17 01:30:50;;;;;;;;;0.00;0.00;;;;;15.96;49.16;101550.06;4883927;29;45422;-65
2022/09/17 01:33:30;;;;;;;;;1.00;1.00;;;;;15.92;49.01;101545.72;4884464;29;45483;-66
2022/09/17 01:36:05;;;;;;;;;0.00;0.00;;;;;15.93;49.15;101548.34;4884334;29;45297;-65
2022/09/17 01:38:54;;;;;;;;;1.00;0.00;;;;;15.96;49.16;101551.88;4883369;29;45291;-65
2022/09/17 01:41:41;;;;;;;;;1.50;0.50;;;;;15.93;49.20;101542.97;4884244;29;45483;-65
2022/09/17 01:44:16;;;;;;;;;3.25;0.00;;;;;15.93;49.12;101553.72;4884555;29;45602;-65
2022/09/17 01:47:26;;;;;;;;;4.00;0.75;;;;;15.92;49.33;101556.47;4871294;29;45407;-65
2022/09/17 01:49:58;;;;;;;;;1.00;0.50;;;;;15.90;49.26;101561.06;4853211;29;46288;-65
2022/09/17 01:52:25;;;;;;;;;2.25;1.00;;;;;15.78;49.34;101551.69;4883192;29;45403;-65
2022/09/17 01:54:56;;;;;;;;;1.00;1.00;;;;;15.79;49.48;101556.13;4870398;29;45509;-65
2022/09/17 01:57:32;;;;;;;;;1.00;1.00;;;;;15.74;49.55;101555.41;4883393;29;45434;-65
2022/09/17 02:00:04;;;;;;;;;0.00;0.00;;;;;15.71;49.63;101558.22;4877242;29;46663;-66
2022/09/17 02:02:41;;;;;;;;;0.75;0.75;;;;;15.74;49.54;101566.19;4882869;29;45342;-66
2022/09/17 02:05:26;;;;;;;;;0.00;0.00;;;;;15.71;49.60;101567.19;4888933;29;45707;-66
2022/09/17 02:08:07;;;;;;;;;0.75;0.75;;;;;15.72;49.72;101568.06;4883689;29;45645;-65
2022/09/17 02:10:39;;;;;;;;;0.00;0.00;;;;;15.67;49.95;101561.97;4883647;29;46516;-65
2022/09/17 02:13:18;;;;;;;;;1.00;1.00;;;;;15.63;49.79;101555.84;4891334;29;45647;-65
2022/09/17 02:15:50;;;;;;;;;0.25;0.25;;;;;15.65;49.91;101559.38;4885881;29;45326;-65
2022/09/17 02:18:31;;;;;;;;;1.75;0.00;;;;;15.66;49.72;101562.94;4866359;29;45328;-66
2022/09/17 02:21:25;;;;;;;;;1.00;1.00;;;;;15.64;49.79;101567.50;4878757;29;45314;-65
2022/09/17 02:24:03;;;;;;;;;2.25;1.00;;;;;15.57;49.83;101564.19;4880625;29;45954;-65
2022/09/17 02:26:29;;;;;;;;;1.00;1.00;;;;;15.57;49.91;101570.44;4883787;29;45470;-65
2022/09/17 02:29:02;;;;;;;;;0.00;0.00;;;;;15.55;49.80;101568.72;4866375;29;45435;-66
2022/09/17 02:31:28;;;;;;;;;1.50;0.00;;;;;15.54;49.74;101572.38;4883045;29;45604;-65
2022/09/17 02:34:00;;;;;;;;;0.25;0.25;;;;;15.54;50.08;101567.88;4883648;29;45578;-66
2022/09/17 02:36:26;;;;;;;;;1.75;0.50;;;;;15.48;49.96;101562.72;4883581;29;45459;-65
2022/09/17 02:39:00;;;;;;;;;0.00;0.00;;;;;15.53;50.10;101566.09;4882549;29;45404;-65
2022/09/17 02:41:40;;;;;;;;;1.00;1.00;;;;;15.47;50.14;101552.00;4883354;29;46053;-65
2022/09/17 02:44:37;;;;;;;;;0.00;0.00;;;;;15.50;49.85;101555.47;4882315;29;45476;-66
2022/09/17 02:47:27;;;;;;;;;0.25;0.00;;;;;15.49;49.90;101553.72;4873226;29;45475;-66
2022/09/17 02:50:26;;;;;;;;;3.50;0.75;;;;;15.44;50.00;101547.66;4883260;29;45572;-66
2022/09/17 02:53:29;;;;;;;;;2.50;0.00;;;;;15.43;50.08;101547.72;4847942;29;45484;-65
2022/09/17 02:56:17;;;;;;;;;0.00;0.00;;;;;15.43;50.07;101548.56;4854089;29;45412;-65
2022/09/17 02:58:46;;;;;;;;;0.50;0.50;;;;;15.41;50.12;101555.84;4891291;29;45421;-66
2022/09/17 03:02:04;;;;;;;;;1.00;1.00;;;;;15.41;49.94;101563.03;4885212;29;45316;-65
2022/09/17 03:04:31;;;;;;;;;0.75;0.75;;;;;15.38;50.11;101558.63;4879867;29;46471;-65
2022/09/17 03:06:58;;;;;;;;;0.00;0.00;;;;;15.36;50.10;101555.16;4889940;29;45329;-65
2022/09/17 03:09:24;;;;;;;;;1.00;1.00;;;;;15.38;50.16;101555.94;4882971;29;45337;-65
2022/09/17 03:11:49;;;;;;;;;0.00;0.00;;;;;15.34;50.18;101557.03;4866451;29;45437;-66
2022/09/17 03:14:14;;;;;;;;;1.00;1.00;;;;;15.35;50.04;101558.75;4894216;29;46191;-65
2022/09/17 03:16:40;;;;;;;;;0.00;0.00;;;;;15.33;49.99;101553.44;4882923;29;45384;-65
2022/09/17 03:19:05;;;;;;;;;0.00;0.00;;;;;15.33;50.17;101555.25;4882598;29;45527;-66
2022/09/17 03:21:30;;;;;;;;;1.00;0.00;;;;;15.31;50.16;101543.69;4871415;29;49374;-65
2022/09/17 03:23:59;;;;;;;;;0.00;0.00;;;;;15.33;49.86;101555.25;4873157;29;45530;-65
2022/09/17 03:26:25;;;;;;;;;1.00;1.00;;;;;15.21;50.20;101550.38;4882807;29;45331;-66
2022/09/17 03:28:50;;;;;;;;;1.00;1.00;;;;;15.21;50.37;101559.31;4882645;29;45332;-65
2022/09/17 03:31:15;;;;;;;;;0.75;0.00;;;;;15.22;50.33;101561.06;4882914;29;45961;-65
2022/09/17 03:33:41;;;;;;;;;0.50;0.50;;;;;15.22;50.43;101568.25;4884345;29;50506;-65
2022/09/17 03:36:06;;;;;;;;;2.75;0.00;;;;;15.21;50.31;101558.44;4886149;29;45378;-66
2022/09/17 03:38:33;;;;;;;;;0.00;0.00;;;;;15.19;50.33;101562.06;4884671;29;45512;-66
2022/09/17 03:41:05;;;;;;;;;1.00;1.00;;;;;15.12;50.61;101551.63;4885659;29;45370;-65
2022/09/17 03:43:31;;;;;;;;;0.00;0.00;;;;;15.16;50.32;101566.69;4872459;29;48125;-66
2022/09/17 03:45:56;;;;;;;;;0.75;0.75;;;;;15.19;50.43;101566.56;4868967;29;45402;-65
2022/09/17 03:48:22;;;;;;;;;0.25;0.25;;;;;15.07;50.23;101541.03;4885646;29;45326;-65
2022/09/17 03:50:48;;;;;;;;;1.00;1.00;;;;;15.15;50.49;101565.81;4882062;29;45437;-66
2022/09/17 03:53:13;;;;;;;;;0.00;0.00;;;;;15.17;50.41;101568.44;4880740;29;46325;-66
2022/09/17 03:55:39;;;;;;;;;0.00;0.00;;;;;15.06;50.21;101554.53;4878393;29;45344;-65
2022/09/17 03:58:05;;;;;;;;;0.25;0.25;;;;;15.18;50.44;101573.75;4887398;29;45424;-65
2022/09/17 04:00:31;;;;;;;;;1.00;1.00;;;;;15.15;50.25;101576.56;4893058;29;45414;-66
2022/09/17 04:02:56;;;;;;;;;1.00;1.00;;;;;15.15;50.20;101576.56;4885619;29;46687;-66
2022/09/17 04:05:22;;;;;;;;;2.00;1.00;;;;;15.21;50.53;101574.56;4892333;29;45720;-66
2022/09/17 04:07:48;;;;;;;;;0.00;0.00;;;;;15.21;50.27;101571.88;4868708;29;45368;-66
2022/09/17 04:10:13;;;;;;;;;1.00;1.00;;;;;15.17;50.55;101572.00;4885593;29;45461;-66
2022/09/17 04:12:38;;;;;;;;;0.75;0.75;;;;;15.16;50.60;101570.22;4885513;29;45705;-66
2022/09/17 04:15:05;;;;;;;;;0.00;0.00;;;;;15.23;50.64;101580.75;4885726;29;45484;-65
2022/09/17 04:17:31;;;;;;;;;0.25;0.25;;;;;15.19;50.74;101580.00;4884989;29;45411;-66
2022/09/17 04:19:57;;;;;;;;;1.00;0.00;;;;;15.16;50.55;101574.75;4885653;29;45329;-66
2022/09/17 04:22:22;;;;;;;;;0.00;0.00;;;;;15.23;50.71;101586.16;4869472;29;46624;-66
2022/09/17 04:24:47;;;;;;;;;2.00;0.00;;;;;15.13;50.41;101581.09;4878955;29;45383;-65
2022/09/17 04:27:13;;;;;;;;;1.00;1.00;;;;;15.21;50.56;101596.97;4884592;29;45526;-65
2022/09/17 04:29:38;;;;;;;;;3.00;1.00;;;;;15.23;50.80;101597.78;4885351;29;45269;-66
2022/09/17 04:32:04;;;;;;;;;2.00;1.00;;;;;15.19;50.71;101597.00;4885224;29;46052;-65
2022/09/17 04:34:30;;;;;;;;;0.25;0.00;;;;;15.16;50.71;101586.38;4885375;29;45337;-65
2022/09/17 04:36:56;;;;;;;;;2.75;1.00;;;;;15.18;50.96;101597.06;4884814;29;45429;-65
2022/09/17 04:39:21;;;;;;;;;1.25;0.75;;;;;15.20;50.93;101603.25;4881460;29;45507;-66
2022/09/17 04:41:46;;;;;;;;;1.25;1.00;;;;;15.17;50.97;101600.72;4883423;29;46555;-66
2022/09/17 04:44:12;;;;;;;;;0.75;0.75;;;;;15.15;51.10;101606.16;4884537;29;45383;-65
2022/09/17 04:46:37;;;;;;;;;0.75;0.75;;;;;15.14;50.97;101615.13;4866970;29;45397;-66
2022/09/17 04:49:02;;;;;;;;;1.00;1.00;;;;;15.15;51.42;101614.22;4884014;29;49057;-66
2022/09/17 04:51:28;;;;;;;;;2.00;1.00;;;;;15.13;51.05;101599.06;4884018;29;46155;-66
2022/09/17 04:53:53;;;;;;;;;0.00;0.00;;;;;15.07;51.36;101591.22;4873644;29;45829;-65
2022/09/17 04:56:19;;;;;;;;;0.75;0.75;;;;;15.12;51.26;101600.88;4882610;29;45318;-65
2022/09/17 04:58:44;;;;;;;;;1.00;1.00;;;;;15.14;51.38;101601.69;4889268;29;45481;-66
2022/09/17 05:01:09;;;;;;;;;1.00;1.00;;;;;15.05;51.36;101590.41;4883884;29;46412;-65
2022/09/17 05:03:35;;;;;;;;;0.00;0.00;;;;;15.15;51.28;101605.25;4884910;29;45449;-65
2022/09/17 05:06:00;;;;;;;;;0.25;0.25;;;;;15.15;50.92;101610.63;4892480;29;45394;-65
2022/09/17 05:08:26;;;;;;;;;0.00;0.00;;;;;15.14;51.05;101617.84;4884103;29;45523;-65
2022/09/17 05:10:51;;;;;;;;;2.25;1.00;;;;;15.14;51.32;101628.59;4884389;29;45340;-65
2022/09/17 05:13:17;;;;;;;;;1.00;1.00;;;;;15.09;51.53;101608.19;4884631;29;45365;-65
2022/09/17 05:15:43;;;;;;;;;2.00;1.00;;;;;15.13;51.30;101617.88;4884651;29;45368;-66
2022/09/17 05:18:09;;;;;;;;;1.00;1.00;;;;;15.09;51.43;101608.19;4884000;29;45556;-65
2022/09/17 05:20:34;;;;;;;;;1.00;1.00;;;;;15.08;51.45;101611.81;4879270;29;45286;-66
2022/09/17 05:22:59;;;;;;;;;0.00;0.00;;;;;15.09;51.17;101606.38;4875672;29;45465;-65
2022/09/17 05:25:25;;;;;;;;;1.00;0.50;;;;;15.14;51.49;101616.97;4884286;29;45295;-66
2022/09/17 05:27:52;;;;;;;;;1.00;1.00;;;;;15.12;51.30;101618.84;4871674;29;48901;-66
2022/09/17 05:30:17;;;;;;;;;1.00;1.00;;;;;15.08;51.24;101622.56;4874779;29;46657;-66
2022/09/17 05:32:43;;;;;;;;;0.75;0.75;;;;;15.07;51.45;101618.09;4884522;29;45408;-66
2022/09/17 05:35:09;;;;;;;;;1.00;1.00;;;;;15.11;51.57;101634.06;4883336;29;45829;-66
2022/09/17 05:37:35;;;;;;;;;1.00;0.00;;;;;15.09;51.65;101625.19;4878637;29;45416;-66
2022/09/17 05:40:02;;;;;;;;;0.75;0.75;;;;;15.10;51.65;101632.34;4883376;29;45479;-66
2022/09/17 05:42:28;;;;;;;;;1.00;1.00;;;;;15.12;51.53;101633.16;4883895;29;45598;-66
2022/09/17 05:44:53;;;;;;;;;1.00;1.00;;;;;15.11;51.72;101634.06;4880480;29;46779;-66
2022/09/17 05:47:18;;;;;;;;;2.00;1.00;;;;;15.10;51.56;101635.03;4883075;29;50463;-66
2022/09/17 05:49:44;;;;;;;;;1.00;1.00;;;;;15.06;51.64;101630.69;4884240;29;45357;-66
2022/09/17 05:52:09;;;;;;;;;0.50;0.50;;;;;15.08;51.60;101634.19;4879630;29;45446;-66
2022/09/17 05:54:34;;;;;;;;;1.50;1.00;;;;;15.06;51.46;101632.50;4881176;29;56449;-66
2022/09/17 05:57:00;;;;;;;;;1.00;1.00;;;;;15.03;51.46;101633.47;4882374;29;45676;-66
2022/09/17 05:59:26;;;;;;;;;1.00;1.00;;;;;14.97;51.69;101637.28;4879885;29;46699;-66
2022/09/17 06:01:52;;;;;;;;;0.25;0.25;;;;;14.98;51.78;101641.75;4883345;29;45479;-66
2022/09/17 06:04:17;;;;;;;;;1.00;1.00;;;;;14.92;51.67;101633.03;4880292;29;45434;-66
2022/09/17 06:06:43;;;;;;;;;1.00;1.00;;;;;14.92;51.97;101639.25;4894872;29;45352;-66
2022/09/17 06:09:09;;;;;;;;;1.00;1.00;;;;;14.89;52.01;101641.19;4901550;29;45953;-66
2022/09/17 06:11:35;;;;;;;;;1.00;1.00;;;;;14.88;52.00;101645.66;4902357;29;45352;-66
2022/09/17 06:14:00;;;;;;;;;2.75;1.00;;;;;14.84;52.08;101638.66;4898320;29;45385;-66
2022/09/17 06:16:26;;;;;;;;;1.75;0.25;;;;;14.83;52.06;101639.56;4889376;29;45281;-66
2022/09/17 06:18:51;;;;;;;;;1.00;1.00;;;;;14.85;51.77;101656.56;4898523;29;47467;-66
2022/09/17 06:21:18;;;;;;;;;1.00;1.00;;;;;14.82;52.21;101645.91;4899401;29;45838;-66
2022/09/17 06:23:44;;;;;;;;;1.00;1.00;;;;;14.82;51.76;101649.47;4902025;29;45396;-66
2022/09/17 06:26:10;;;;;;;;;1.00;1.00;;;;;14.85;52.20;101647.59;4902361;29;45538;-66
2022/09/17 06:28:36;;;;;;;;;0.75;0.75;;;;;14.79;52.30;101654.94;4901815;29;45522;-66
2022/09/17 06:31:04;;;;;;;;;0.75;0.75;;;;;14.84;52.07;101659.28;4901822;29;45471;-66
2022/09/17 06:33:31;;;;;;;;;1.00;1.00;;;;;14.84;52.48;101653.91;4902323;29;45510;-66
2022/09/17 06:36:02;;;;;;;;;1.50;0.75;;;;;14.82;52.29;101653.97;4902241;29;45535;-66
2022/09/17 06:38:28;;;;;;;;;0.75;0.50;;;;;14.87;52.35;101659.16;4901936;29;46262;-66
2022/09/17 06:40:54;;;;;;;;;0.50;0.50;;;;;14.87;51.98;101667.22;4900000;29;45619;-66
2022/09/17 06:43:20;;;;;;;;;1.75;0.00;;;;;14.84;51.95;101662.84;4896773;29;46458;-66
2022/09/17 06:45:59;;;;;;;;;1.25;1.00;;;;;14.84;51.51;101667.34;4898158;29;45515;-66
2022/09/17 06:48:26;;;;;;;;;1.00;0.75;;;;;14.80;51.80;101672.84;4893597;29;46132;-66
2022/09/17 06:50:53;;;;;;;;;1.50;0.00;;;;;14.79;52.43;101679.13;4900574;29;45472;-66
2022/09/17 06:53:19;;;;;;;;;1.25;1.25;;;;;14.78;51.77;101677.41;4900264;29;45486;-66
2022/09/17 06:55:45;;;;;;;;;0.00;0.00;;;;;14.77;51.84;101680.13;4898374;29;45732;-66
2022/09/17 06:58:10;;;;;;;;;0.25;0.25;;;;;14.74;51.87;101678.41;4900316;29;46090;-66
2022/09/17 07:00:35;;;;;;;;;0.75;0.75;;;;;14.76;51.98;101675.69;4900392;29;45456;-65
2022/09/17 07:03:01;;;;;;;;;0.50;0.50;;;;;14.79;52.04;101676.44;4899887;29;45581;-66
2022/09/17 07:05:28;;;;;;;;;0.50;0.50;;;;;14.80;51.82;101677.31;4899367;28;45526;-66
2022/09/17 07:07:54;;;;;;;;;1.00;1.00;;;;;14.84;52.28;101681.66;4882234;29;45287;-65
2022/09/17 07:10:20;;;;;;;;;2.00;1.00;;;;;14.86;52.08;101677.09;4885803;29;45388;-66
2022/09/17 07:12:46;;;;;;;;;1.00;1.00;;;;;14.86;51.84;101676.25;4886365;29;45478;-66
2022/09/17 07:15:12;;;;;;;;;3.50;1.75;;;;;14.90;51.51;101678.78;4886082;29;45412;-66
2022/09/17 07:17:39;;;;;;;;;0.25;0.25;;;;;14.89;51.76;101685.06;4885840;29;46699;-66
2022/09/17 07:20:06;;;;;;;;;1.00;1.00;;;;;14.88;51.76;101674.38;4886035;29;46704;-66
2022/09/17 07:22:31;;;;;;;;;2.50;1.00;;;;;14.88;51.68;101671.69;4883938;29;45471;-66
2022/09/17 07:24:56;;;;;;;;;1.00;1.00;;;;;14.87;51.83;101669.91;4885618;29;45362;-65
2022/09/17 07:27:22;;;;;;;;;1.00;1.00;;;;;14.86;51.84;101678.94;4885827;29;45956;-65
2022/09/17 07:29:47;;;;;;;;;1.00;0.50;;;;;14.83;51.50;101661.09;4882673;29;45309;-65
2022/09/17 07:32:12;;;;;;;;;1.00;1.00;;;;;14.86;51.88;101662.78;4877886;29;45882;-65
2022/09/17 07:34:38;;;;;;;;;1.00;1.00;;;;;14.85;51.72;101663.72;4879082;29;45408;-65
2022/09/17 07:37:04;;;;;;;;;0.50;0.50;;;;;14.84;51.72;101656.59;4879377;29;46067;-65
2022/09/17 07:39:29;;;;;;;;;2.50;1.00;;;;;14.90;51.77;101668.03;4880788;29;46149;-65
2022/09/17 07:41:54;;;;;;;;;0.50;0.50;;;;;14.94;51.75;101666.09;4878457;29;45586;-65
2022/09/17 07:44:21;;;;;;;;;0.00;0.00;;;;;14.99;51.57;101670.34;4880671;29;45555;-65
2022/09/17 07:46:46;;;;;;;;;2.00;1.00;;;;;15.03;51.26;101678.31;4881596;29;47393;-65
2022/09/17 07:49:11;;;;;;;;;0.25;0.00;;;;;15.08;51.19;101676.34;4885827;29;45656;-66
2022/09/17 07:51:37;;;;;;;;;0.00;0.00;;;;;15.05;50.84;101671.97;4885319;29;45571;-65
2022/09/17 07:54:02;;;;;;;;;2.00;0.00;;;;;15.02;51.07;101669.38;4876061;29;45469;-66
2022/09/17 07:56:28;;;;;;;;;0.00;0.00;;;;;15.00;51.15;101658.69;4882975;29;46541;-66
2022/09/17 07:58:54;;;;;;;;;1.00;1.00;;;;;15.10;51.17;101671.78;4883833;29;45427;-66
2022/09/17 08:01:22;;;;;;;;;4.50;3.00;;;;;15.13;51.14;101672.53;4884918;29;45520;-65
2022/09/17 08:03:49;;;;;;;;;1.00;1.00;;;;;15.22;50.54;101679.41;4883369;29;45318;-66
2022/09/17 08:06:18;;;;;;;;;1.00;1.00;;;;;15.29;51.04;101685.44;4888070;28;46000;-66
2022/09/17 08:08:44;;;;;;;;;0.50;0.00;;;;;15.33;50.66;101687.94;4883887;29;45436;-66
2022/09/17 08:11:14;;;;;;;;;1.25;1.25;;;;;15.37;50.51;101683.34;4882803;29;45390;-65
2022/09/17 08:13:41;;;;;;;;;1.00;0.00;;;;;15.31;50.92;101667.44;4882576;29;46056;-65
2022/09/17 08:16:11;;;;;;;;;2.50;0.00;;;;;15.42;50.72;101681.34;4865538;29;46138;-66
2022/09/17 08:18:37;;;;;;;;;0.00;0.00;;;;;15.45;50.46;101683.03;4884923;29;45566;-65
2022/09/17 08:21:05;;;;;;;;;1.50;1.00;;;;;15.46;50.34;101680.28;4884069;29;45663;-66
2022/09/17 08:23:34;;;;;;;;;2.50;0.00;;;;;15.56;50.76;101689.75;4885068;29;45495;-65
2022/09/17 08:25:59;;;;;;;;;1.50;0.00;;;;;15.59;50.43;101679.84;4884146;29;45534;-66
2022/09/17 08:28:27;;;;;;;;;1.00;1.00;;;;;15.59;50.42;101680.72;4883033;29;45579;-65
2022/09/17 08:30:54;;;;;;;;;2.00;0.00;;;;;15.63;50.47;101689.53;4863833;29;45580;-66
2022/09/17 08:33:20;;;;;;;;;0.25;0.00;;;;;15.71;50.41;101700.88;4892064;29;45616;-66
2022/09/17 08:35:58;;;;;;;;;2.00;1.00;;;;;15.73;50.20;101705.25;4884675;29;45294;-65
2022/09/17 08:38:24;;;;;;;;;0.00;0.00;;;;;15.72;50.45;101691.91;4863584;29;45647;-66
2022/09/17 08:41:04;;;;;;;;;3.50;0.50;;;;;15.80;50.25;101703.25;4884884;29;45366;-66
2022/09/17 08:43:34;;;;;;;;;1.00;0.00;;;;;15.78;50.32;101690.78;4876718;29;45276;-66
2022/09/17 08:46:00;;;;;;;;;0.00;0.00;;;;;15.83;50.03;101696.88;4887175;29;46274;-65
2022/09/17 08:48:34;;;;;;;;;2.25;0.00;;;;;15.87;50.04;101695.81;4883832;29;46488;-66
2022/09/17 08:51:01;;;;;;;;;1.00;0.00;;;;;15.96;49.98;101705.34;4883971;29;45500;-66
2022/09/17 08:53:42;;;;;;;;;2.50;1.00;;;;;16.01;49.85;101714.13;4882912;29;45286;-66
2022/09/17 08:56:15;;;;;;;;;1.50;1.00;;;;;16.04;49.82;101714.88;4882568;29;46087;-66
2022/09/17 08:59:07;;;;;;;;;0.00;0.00;;;;;16.06;49.59;101714.81;4874733;29;45378;-66
2022/09/17 09:01:58;;;;;;;;;0.00;0.00;;;;;16.11;49.42;101710.13;4874358;29;45610;-65
2022/09/17 09:04:51;;;;;;;;;1.25;0.00;;;;;16.04;48.99;101701.41;4872965;29;45487;-65
2022/09/17 09:07:25;;;;;;;;;1.00;0.00;;;;;16.07;49.63;101706.69;4900835;28;46492;-65
2022/09/17 09:10:05;;;;;;;;;2.25;2.25;;;;;16.14;49.27;101712.69;4903142;29;45493;-65
2022/09/17 09:12:35;;;;;;;;;1.00;1.00;;;;;16.15;49.98;101711.75;4891338;29;45625;-66
2022/09/17 09:15:15;;;;;;;;;0.75;0.00;;;;;16.20;49.42;101711.56;4902742;28;45313;-66
2022/09/17 09:17:45;;;;;;;;;0.00;0.00;;;;;16.19;49.10;101710.69;4902114;28;46825;-66
2022/09/17 09:20:46;;;;;;;;;1.75;0.00;;;;;16.27;49.18;101715.75;4902290;29;45456;-65
2022/09/17 09:23:19;;;;;;;;;2.00;1.00;;;;;16.32;49.07;101720.97;4858563;29;45459;-66
2022/09/17 09:25:53;;;;;;;;;0.75;0.75;;;;;16.32;48.90;101729.03;4902802;28;45523;-65
2022/09/17 09:28:43;;;;;;;;;2.50;0.75;;;;;16.33;49.43;101717.34;4901694;29;45479;-65
2022/09/17 09:31:38;;;;;;;;;1.00;0.00;;;;;16.40;49.06;101726.91;4895364;29;45347;-66
2022/09/17 09:34:04;;;;;;;;;1.00;1.00;;;;;16.42;48.58;101720.53;4891061;29;45340;-66
2022/09/17 09:36:32;;;;;;;;;1.00;0.50;;;;;16.44;48.35;101715.09;4902570;29;45429;-66
2022/09/17 09:39:20;;;;;;;;;0.00;0.00;;;;;16.48;48.45;101728.34;4883114;29;47344;-65
2022/09/17 09:41:57;;;;;;;;;2.00;0.00;;;;;16.47;48.46;101723.91;4898978;29;46047;-65
2022/09/17 09:44:24;;;;;;;;;0.75;0.75;;;;;16.57;48.08;101727.09;4899368;29;45483;-65
2022/09/17 09:47:01;;;;;;;;;1.00;1.00;;;;;16.59;47.83;101732.41;4902390;29;45346;-65
2022/09/17 09:49:42;;;;;;;;;0.00;0.00;;;;;16.59;47.80;101721.63;4902449;29;45375;-65
2022/09/17 09:52:26;;;;;;;;;0.25;0.25;;;;;16.61;47.81;101739.50;4902428;29;45437;-65
2022/09/17 09:54:51;;;;;;;;;2.25;0.25;;;;;16.65;47.58;101729.47;4901780;29;45372;-66
2022/09/17 09:57:30;;;;;;;;;2.00;1.00;;;;;16.71;47.43;101720.25;4902667;29;45308;-66
2022/09/17 10:00:23;;;;;;;;;2.25;2.00;;;;;16.74;46.75;101726.38;4897694;29;46509;-67
2022/09/17 10:02:55;;;;;;;;;3.00;2.75;;;;;16.78;46.28;101724.44;4897849;29;45418;-67
2022/09/17 10:05:21;;;;;;;;;2.00;1.00;;;;;16.71;46.48;101709.47;4901412;28;45500;-68
2022/09/17 10:07:46;;;;;;;;;3.00;2.00;;;;;16.83;46.45;101725.13;4882626;29;46693;-68
2022/09/17 10:10:11;;;;;;;;;2.00;1.00;;;;;16.84;46.23;101725.09;4864326;29;46356;-67
2022/09/17 10:12:37;;;;;;;;;1.75;1.50;;;;;16.87;47.05;101723.19;4865280;29;46403;-67
2022/09/17 10:15:25;;;;;;;;;3.75;2.00;;;;;16.89;46.76;101722.19;4881130;29;45475;-67
2022/09/17 10:18:12;;;;;;;;;0.75;0.75;;;;;16.87;46.23;101710.56;4872529;29;45401;-67
2022/09/17 10:20:51;;;;;;;;;3.00;2.75;;;;;16.94;46.15;101719.28;4880079;29;46124;-68
2022/09/17 10:23:16;;;;;;;;;2.50;1.00;;;;;17.00;45.88;101719.00;4882204;29;45393;-67
2022/09/17 10:25:42;;;;;;;;;2.75;0.75;;;;;17.03;45.96;101719.75;4865750;29;45366;-68
2022/09/17 10:28:33;;;;;;;;;2.75;1.00;;;;;17.08;46.28;101716.84;4877466;29;45761;-66
2022/09/17 10:31:02;;;;;;;;;2.00;0.00;;;;;17.10;45.79;101714.09;4871851;29;46076;-66
2022/09/17 10:33:30;;;;;;;;;0.00;0.00;;;;;17.15;45.65;101729.13;4876429;29;45657;-66
2022/09/17 10:36:05;;;;;;;;;0.75;0.25;;;;;17.16;45.67;101720.09;4881138;29;45503;-66
2022/09/17 10:38:34;;;;;;;;;0.00;0.00;;;;;17.18;45.14;101715.50;4881558;29;45669;-66
2022/09/17 10:41:21;;;;;;;;;2.25;0.00;;;;;17.23;45.56;101712.59;4881604;29;46705;-66
2022/09/17 10:43:48;;;;;;;;;3.00;0.25;;;;;17.17;45.52;101704.78;4881708;29;45334;-66
2022/09/17 10:46:28;;;;;;;;;0.00;0.00;;;;;17.27;45.53;101710.63;4883407;29;45318;-66
2022/09/17 10:49:21;;;;;;;;;1.00;1.00;;;;;17.30;45.07;101705.09;4871382;29;45582;-66
2022/09/17 10:51:47;;;;;;;;;3.00;0.00;;;;;17.29;45.04;101698.84;4880854;29;45592;-65
2022/09/17 10:54:34;;;;;;;;;0.25;0.00;;;;;17.34;45.21;101704.00;4882908;29;45711;-66
2022/09/17 10:57:00;;;;;;;;;0.00;0.00;;;;;17.32;44.56;101693.28;4871430;29;45471;-66
2022/09/17 10:59:56;;;;;;;;;0.00;0.00;;;;;17.39;44.06;101697.47;4866969;29;45528;-66
2022/09/17 11:02:21;;;;;;;;;0.00;0.00;;;;;17.43;43.57;101700.91;4876223;29;46066;-66
2022/09/17 11:05:06;;;;;;;;;0.50;0.50;;;;;17.43;44.16;101689.25;4878541;29;45468;-66
2022/09/17 11:08:00;;;;;;;;;0.00;0.00;;;;;17.43;44.14;101691.94;4898431;29;46079;-66
2022/09/17 11:10:33;;;;;;;;;0.00;0.00;;;;;17.46;44.11;101683.69;4899769;29;45586;-66
2022/09/17 11:13:01;;;;;;;;;0.00;0.00;;;;;17.49;43.86;101684.44;4897618;29;47609;-66
2022/09/17 11:16:04;;;;;;;;;1.00;0.00;;;;;17.53;43.75;101677.06;4899948;29;45393;-66
2022/09/17 11:18:52;;;;;;;;;0.75;0.00;;;;;17.55;43.13;101681.44;4890131;29;45627;-66
2022/09/17 11:21:32;;;;;;;;;0.00;0.00;;;;;17.58;43.55;101670.50;4891148;29;45253;-66
2022/09/17 11:24:16;;;;;;;;;0.00;0.00;;;;;17.61;43.38;101677.59;4898267;29;46108;-66
2022/09/17 11:26:45;;;;;;;;;1.25;0.25;;;;;17.65;43.41;101667.50;4895110;28;45367;-66
2022/09/17 11:29:42;;;;;;;;;0.00;0.00;;;;;17.67;43.34;101666.47;4889203;29;45486;-66
2022/09/17 11:32:49;;;;;;;;;0.50;0.50;;;;;17.64;43.19;101669.34;4870572;29;45945;-66
2022/09/17 11:35:15;;;;;;;;;0.00;0.00;;;;;17.66;42.66;101672.84;4872914;29;45539;-66
2022/09/17 11:38:34;;;;;;;;;0.75;0.00;;;;;17.64;41.82;101677.44;4900746;29;45317;-66
2022/09/17 11:41:03;;;;;;;;;1.00;0.25;;;;;17.66;42.15;101674.66;4781239;29;45546;-66
2022/09/17 11:43:39;;;;;;;;;0.00;0.00;;;;;17.65;42.16;101665.69;4886340;29;45488;-66
2022/09/17 11:46:19;;;;;;;;;2.00;0.00;;;;;17.69;41.79;101659.19;4884351;29;48317;-66